Airfield :
LOGIN :

Register | Disclaimer

   EN    FR    IT 

 










Legend :    VFR   Marginal VFR   IFR   Intensive IFR   Very Intensive IFR
Visi :
Ceiling :
>= 8 km
>= 3000ft
5 to 8 km
1000 to 3000 ft
1500m to 5 km
500 to 1000 ft
800 to 1500m
200 to 500 ft
< 800m
< 200 ft
Symbols :   Thunderstorms  Fog  Heavy snow  Heavy precipitations  Wind > 20 kt
SIGMETs :     Misc.  Thunderstorms  Icing  Turbulence  Mountain Waves  Volcanic Ashes







- Airport Elevation : 29 ft
- IATA code : SVG


ENZV - Sola

CURRENT METAR :
  • 210520Z 24007KT 9999 FEW003 BKN009 07/07 Q1012 BECMG BKN012

EXPIRED METARs :
  • 210450Z 24008KT 9000 FEW003 BKN006 07/07 Q1012
  • 210420Z 24008KT 5000 BR OVC002 07/07 Q1011
  • 210350Z 23008KT 6000 FEW002 BKN003 07/07 Q1011
  • 210250Z 20010KT 9999 VCSH BKN008 08/07 Q1010

TAF ENZV
Valid from the 21 at 06:00 until the 22 at 06:00 UTC


2106/2206 28010KT 9999 BKN008
TEMPO 2106/2109 1200 RADZ BR OVC003
BECMG 2112/2115 VRB06KT SCT010 BKN020
No reported NOTAMs for that airfield.



MET'MAP, your aeronautical weather chart ! - Copyright ORBIFLY December 2007 - Disclaimer

ORBIFLY MET'MAP TEAM :

Programming & Development : Alexandra Zaïnal
Concept & Development : Baudouin d'Aumeries
Co-Development & Prog : Marc-Olivier Méhu
Technical & hardware support : Manuel Goepfert

Contact : metmap@orbifly.com




SOURCES & CREDITS :

   NOAA